sensor_id;sensor_type;location;lat;lon;timestamp;P1;durP1;ratioP1;P2;durP2;ratioP2
11490;SDS011;5802;52.832;4.758;2023-06-05T00:02:20;1.85;;;1.10;;
11490;SDS011;5802;52.832;4.758;2023-06-05T00:04:47;1.40;;;1.20;;
11490;SDS011;5802;52.832;4.758;2023-06-05T00:07:14;1.77;;;1.30;;
11490;SDS011;5802;52.832;4.758;2023-06-05T00:09:40;1.45;;;1.05;;
11490;SDS011;5802;52.832;4.758;2023-06-05T00:12:07;1.00;;;0.90;;
11490;SDS011;5802;52.832;4.758;2023-06-05T00:14:36;1.40;;;1.25;;
11490;SDS011;5802;52.832;4.758;2023-06-05T00:17:02;2.22;;;1.10;;
11490;SDS011;5802;52.832;4.758;2023-06-05T00:19:32;1.85;;;1.33;;
11490;SDS011;5802;52.832;4.758;2023-06-05T00:21:59;1.20;;;1.10;;
11490;SDS011;5802;52.832;4.758;2023-06-05T00:24:26;1.30;;;1.20;;
11490;SDS011;5802;52.832;4.758;2023-06-05T00:26:53;1.75;;;1.25;;
11490;SDS011;5802;52.832;4.758;2023-06-05T00:29:19;1.40;;;1.20;;
11490;SDS011;5802;52.832;4.758;2023-06-05T00:31:47;2.03;;;1.10;;
11490;SDS011;5802;52.832;4.758;2023-06-05T00:34:14;1.20;;;1.10;;
11490;SDS011;5802;52.832;4.758;2023-06-05T00:36:41;1.67;;;1.35;;
11490;SDS011;5802;52.832;4.758;2023-06-05T00:39:07;1.33;;;1.15;;
11490;SDS011;5802;52.832;4.758;2023-06-05T00:41:35;1.13;;;1.00;;
11490;SDS011;5802;52.832;4.758;2023-06-05T00:44:01;1.70;;;1.25;;
11490;SDS011;5802;52.832;4.758;2023-06-05T00:46:28;1.80;;;1.10;;
11490;SDS011;5802;52.832;4.758;2023-06-05T00:48:56;1.40;;;1.10;;
11490;SDS011;5802;52.832;4.758;2023-06-05T00:51:23;1.10;;;1.00;;
11490;SDS011;5802;52.832;4.758;2023-06-05T00:53:50;1.80;;;1.20;;
11490;SDS011;5802;52.832;4.758;2023-06-05T00:56:16;4.15;;;1.25;;
11490;SDS011;5802;52.832;4.758;2023-06-05T00:58:45;1.13;;;1.00;;
11490;SDS011;5802;52.832;4.758;2023-06-05T01:01:13;1.35;;;1.00;;
11490;SDS011;5802;52.832;4.758;2023-06-05T01:03:42;1.25;;;1.00;;
11490;SDS011;5802;52.832;4.758;2023-06-05T01:06:11;2.03;;;1.30;;
11490;SDS011;5802;52.832;4.758;2023-06-05T01:08:38;1.17;;;1.00;;
11490;SDS011;5802;52.832;4.758;2023-06-05T01:11:05;3.88;;;1.30;;
11490;SDS011;5802;52.832;4.758;2023-06-05T01:13:43;1.45;;;0.93;;
11490;SDS011;5802;52.832;4.758;2023-06-05T01:16:23;1.10;;;1.00;;
11490;SDS011;5802;52.832;4.758;2023-06-05T01:18:56;2.00;;;1.20;;
11490;SDS011;5802;52.832;4.758;2023-06-05T01:21:28;1.10;;;1.00;;
11490;SDS011;5802;52.832;4.758;2023-06-05T01:23:57;1.17;;;1.08;;
11490;SDS011;5802;52.832;4.758;2023-06-05T01:26:24;1.92;;;1.05;;
11490;SDS011;5802;52.832;4.758;2023-06-05T01:28:56;2.13;;;1.00;;
11490;SDS011;5802;52.832;4.758;2023-06-05T01:31:25;2.13;;;1.50;;
11490;SDS011;5802;52.832;4.758;2023-06-05T01:33:54;1.10;;;1.00;;
11490;SDS011;5802;52.832;4.758;2023-06-05T01:36:28;1.27;;;1.17;;
11490;SDS011;5802;52.832;4.758;2023-06-05T01:38:57;1.25;;;1.00;;
11490;SDS011;5802;52.832;4.758;2023-06-05T01:41:26;2.25;;;1.02;;
11490;SDS011;5802;52.832;4.758;2023-06-05T01:43:53;1.40;;;1.20;;
11490;SDS011;5802;52.832;4.758;2023-06-05T01:46:21;2.30;;;1.40;;
11490;SDS011;5802;52.832;4.758;2023-06-05T01:48:49;1.58;;;1.17;;
11490;SDS011;5802;52.832;4.758;2023-06-05T01:51:16;1.27;;;0.98;;
11490;SDS011;5802;52.832;4.758;2023-06-05T01:53:43;1.58;;;1.08;;
11490;SDS011;5802;52.832;4.758;2023-06-05T01:56:15;1.42;;;1.10;;
11490;SDS011;5802;52.832;4.758;2023-06-05T01:58:45;1.75;;;1.13;;
11490;SDS011;5802;52.832;4.758;2023-06-05T02:01:12;1.40;;;1.08;;
11490;SDS011;5802;52.832;4.758;2023-06-05T02:03:41;3.58;;;1.30;;
11490;SDS011;5802;52.832;4.758;2023-06-05T02:06:12;1.67;;;1.20;;
11490;SDS011;5802;52.832;4.758;2023-06-05T02:08:40;1.73;;;1.10;;
11490;SDS011;5802;52.832;4.758;2023-06-05T02:11:07;2.10;;;1.10;;
11490;SDS011;5802;52.832;4.758;2023-06-05T02:13:36;1.48;;;1.02;;
11490;SDS011;5802;52.832;4.758;2023-06-05T02:16:03;1.20;;;1.10;;
11490;SDS011;5802;52.832;4.758;2023-06-05T02:18:30;1.67;;;1.20;;
11490;SDS011;5802;52.832;4.758;2023-06-05T02:20:57;1.23;;;1.13;;
11490;SDS011;5802;52.832;4.758;2023-06-05T02:23:24;2.50;;;1.10;;
11490;SDS011;5802;52.832;4.758;2023-06-05T02:25:51;2.90;;;1.20;;
11490;SDS011;5802;52.832;4.758;2023-06-05T02:28:18;2.80;;;1.10;;
11490;SDS011;5802;52.832;4.758;2023-06-05T02:30:46;1.42;;;1.08;;
11490;SDS011;5802;52.832;4.758;2023-06-05T02:33:13;1.50;;;1.10;;
11490;SDS011;5802;52.832;4.758;2023-06-05T02:35:40;2.17;;;1.20;;
11490;SDS011;5802;52.832;4.758;2023-06-05T02:38:07;1.20;;;1.00;;
11490;SDS011;5802;52.832;4.758;2023-06-05T02:40:35;1.30;;;1.20;;
11490;SDS011;5802;52.832;4.758;2023-06-05T02:43:01;1.05;;;0.93;;
11490;SDS011;5802;52.832;4.758;2023-06-05T02:45:30;3.83;;;1.20;;
11490;SDS011;5802;52.832;4.758;2023-06-05T02:47:58;1.00;;;0.90;;
11490;SDS011;5802;52.832;4.758;2023-06-05T02:50:25;2.38;;;1.10;;
11490;SDS011;5802;52.832;4.758;2023-06-05T02:52:51;1.15;;;1.00;;
11490;SDS011;5802;52.832;4.758;2023-06-05T02:55:18;1.42;;;1.20;;
11490;SDS011;5802;52.832;4.758;2023-06-05T02:57:45;1.33;;;1.10;;
11490;SDS011;5802;52.832;4.758;2023-06-05T03:00:14;1.55;;;1.10;;
11490;SDS011;5802;52.832;4.758;2023-06-05T03:02:41;1.15;;;1.05;;
11490;SDS011;5802;52.832;4.758;2023-06-05T03:05:14;1.38;;;1.20;;
11490;SDS011;5802;52.832;4.758;2023-06-05T03:07:49;1.35;;;1.05;;
11490;SDS011;5802;52.832;4.758;2023-06-05T03:10:18;1.50;;;1.10;;
11490;SDS011;5802;52.832;4.758;2023-06-05T03:12:45;3.72;;;1.10;;
11490;SDS011;5802;52.832;4.758;2023-06-05T03:15:11;1.13;;;0.95;;
11490;SDS011;5802;52.832;4.758;2023-06-05T03:17:40;1.10;;;1.00;;
11490;SDS011;5802;52.832;4.758;2023-06-05T03:20:06;0.82;;;0.80;;
11490;SDS011;5802;52.832;4.758;2023-06-05T03:22:36;1.50;;;1.27;;
11490;SDS011;5802;52.832;4.758;2023-06-05T03:25:03;2.72;;;1.10;;
11490;SDS011;5802;52.832;4.758;2023-06-05T03:27:30;1.10;;;0.80;;
11490;SDS011;5802;52.832;4.758;2023-06-05T03:29:57;1.00;;;0.90;;
11490;SDS011;5802;52.832;4.758;2023-06-05T03:32:24;1.25;;;0.90;;
11490;SDS011;5802;52.832;4.758;2023-06-05T03:34:50;0.82;;;0.82;;
11490;SDS011;5802;52.832;4.758;2023-06-05T03:37:17;1.02;;;0.90;;
11490;SDS011;5802;52.832;4.758;2023-06-05T03:39:45;1.75;;;0.90;;
11490;SDS011;5802;52.832;4.758;2023-06-05T03:42:12;1.98;;;1.08;;
11490;SDS011;5802;52.832;4.758;2023-06-05T03:44:38;1.30;;;1.20;;
11490;SDS011;5802;52.832;4.758;2023-06-05T03:47:05;1.15;;;1.05;;
11490;SDS011;5802;52.832;4.758;2023-06-05T03:49:33;0.98;;;0.90;;
11490;SDS011;5802;52.832;4.758;2023-06-05T03:52:00;1.30;;;1.00;;
11490;SDS011;5802;52.832;4.758;2023-06-05T03:54:28;2.22;;;0.80;;
11490;SDS011;5802;52.832;4.758;2023-06-05T03:56:59;1.50;;;0.90;;
11490;SDS011;5802;52.832;4.758;2023-06-05T03:59:27;1.33;;;1.10;;
11490;SDS011;5802;52.832;4.758;2023-06-05T04:01:53;1.00;;;0.90;;
11490;SDS011;5802;52.832;4.758;2023-06-05T04:04:23;1.08;;;0.93;;
11490;SDS011;5802;52.832;4.758;2023-06-05T04:06:51;1.40;;;1.10;;
11490;SDS011;5802;52.832;4.758;2023-06-05T04:09:20;1.23;;;0.90;;
11490;SDS011;5802;52.832;4.758;2023-06-05T04:11:46;1.20;;;1.00;;
11490;SDS011;5802;52.832;4.758;2023-06-05T04:14:15;1.23;;;1.13;;
11490;SDS011;5802;52.832;4.758;2023-06-05T04:16:42;1.60;;;1.10;;
11490;SDS011;5802;52.832;4.758;2023-06-05T04:19:10;0.98;;;0.88;;
11490;SDS011;5802;52.832;4.758;2023-06-05T04:21:37;1.38;;;1.10;;
11490;SDS011;5802;52.832;4.758;2023-06-05T04:24:04;2.38;;;1.10;;
11490;SDS011;5802;52.832;4.758;2023-06-05T04:26:35;2.63;;;0.90;;
11490;SDS011;5802;52.832;4.758;2023-06-05T04:29:03;3.50;;;1.20;;
11490;SDS011;5802;52.832;4.758;2023-06-05T04:31:36;1.20;;;1.10;;
11490;SDS011;5802;52.832;4.758;2023-06-05T04:34:05;0.98;;;0.90;;
11490;SDS011;5802;52.832;4.758;2023-06-05T04:36:33;1.85;;;0.98;;
11490;SDS011;5802;52.832;4.758;2023-06-05T04:39:01;1.60;;;1.20;;
11490;SDS011;5802;52.832;4.758;2023-06-05T04:41:29;1.10;;;0.88;;
11490;SDS011;5802;52.832;4.758;2023-06-05T04:43:57;1.30;;;0.82;;
11490;SDS011;5802;52.832;4.758;2023-06-05T04:46:25;1.20;;;1.10;;
11490;SDS011;5802;52.832;4.758;2023-06-05T04:48:53;3.67;;;1.10;;
11490;SDS011;5802;52.832;4.758;2023-06-05T04:51:22;2.13;;;1.02;;
11490;SDS011;5802;52.832;4.758;2023-06-05T04:53:49;2.50;;;1.10;;
11490;SDS011;5802;52.832;4.758;2023-06-05T04:56:17;1.10;;;1.00;;
11490;SDS011;5802;52.832;4.758;2023-06-05T04:58:45;1.80;;;1.27;;
11490;SDS011;5802;52.832;4.758;2023-06-05T05:01:13;1.30;;;1.10;;
11490;SDS011;5802;52.832;4.758;2023-06-05T05:03:41;1.63;;;1.00;;
11490;SDS011;5802;52.832;4.758;2023-06-05T05:06:10;1.20;;;1.00;;
11490;SDS011;5802;52.832;4.758;2023-06-05T05:08:39;1.40;;;1.23;;
11490;SDS011;5802;52.832;4.758;2023-06-05T05:11:06;1.80;;;1.08;;
11490;SDS011;5802;52.832;4.758;2023-06-05T05:13:33;1.15;;;0.93;;
11490;SDS011;5802;52.832;4.758;2023-06-05T05:16:00;1.10;;;1.00;;
11490;SDS011;5802;52.832;4.758;2023-06-05T05:18:27;1.50;;;1.08;;
11490;SDS011;5802;52.832;4.758;2023-06-05T05:20:55;1.10;;;1.00;;
11490;SDS011;5802;52.832;4.758;2023-06-05T05:23:23;1.40;;;1.00;;
11490;SDS011;5802;52.832;4.758;2023-06-05T05:25:50;1.20;;;1.10;;
11490;SDS011;5802;52.832;4.758;2023-06-05T05:28:17;1.67;;;1.10;;
11490;SDS011;5802;52.832;4.758;2023-06-05T05:30:44;1.30;;;1.00;;
11490;SDS011;5802;52.832;4.758;2023-06-05T05:33:11;1.02;;;0.90;;
11490;SDS011;5802;52.832;4.758;2023-06-05T05:35:39;1.73;;;1.35;;
11490;SDS011;5802;52.832;4.758;2023-06-05T05:38:06;1.52;;;1.20;;
11490;SDS011;5802;52.832;4.758;2023-06-05T05:40:34;1.58;;;1.10;;
11490;SDS011;5802;52.832;4.758;2023-06-05T05:43:00;1.45;;;1.20;;
11490;SDS011;5802;52.832;4.758;2023-06-05T05:45:27;1.20;;;1.10;;
11490;SDS011;5802;52.832;4.758;2023-06-05T05:47:54;1.52;;;1.30;;
11490;SDS011;5802;52.832;4.758;2023-06-05T05:50:20;2.88;;;1.38;;
11490;SDS011;5802;52.832;4.758;2023-06-05T05:52:47;1.60;;;1.20;;
11490;SDS011;5802;52.832;4.758;2023-06-05T05:55:15;1.70;;;1.20;;
11490;SDS011;5802;52.832;4.758;2023-06-05T05:57:43;1.35;;;1.10;;
11490;SDS011;5802;52.832;4.758;2023-06-05T06:00:11;1.20;;;1.10;;
11490;SDS011;5802;52.832;4.758;2023-06-05T06:02:38;1.75;;;1.02;;
11490;SDS011;5802;52.832;4.758;2023-06-05T06:05:05;1.38;;;1.20;;
11490;SDS011;5802;52.832;4.758;2023-06-05T06:07:32;1.20;;;1.10;;
11490;SDS011;5802;52.832;4.758;2023-06-05T06:10:00;1.63;;;1.13;;
11490;SDS011;5802;52.832;4.758;2023-06-05T06:12:27;1.20;;;1.10;;
11490;SDS011;5802;52.832;4.758;2023-06-05T06:14:55;3.65;;;1.27;;
11490;SDS011;5802;52.832;4.758;2023-06-05T06:17:22;1.10;;;1.00;;
11490;SDS011;5802;52.832;4.758;2023-06-05T06:19:49;1.25;;;1.10;;
11490;SDS011;5802;52.832;4.758;2023-06-05T06:22:16;1.63;;;1.38;;
11490;SDS011;5802;52.832;4.758;2023-06-05T06:24:43;1.92;;;1.15;;
11490;SDS011;5802;52.832;4.758;2023-06-05T06:27:10;1.58;;;1.20;;
11490;SDS011;5802;52.832;4.758;2023-06-05T06:29:45;1.88;;;1.20;;
11490;SDS011;5802;52.832;4.758;2023-06-05T06:32:14;2.22;;;1.30;;
11490;SDS011;5802;52.832;4.758;2023-06-05T06:34:41;2.55;;;1.33;;
11490;SDS011;5802;52.832;4.758;2023-06-05T06:37:09;1.58;;;1.20;;
11490;SDS011;5802;52.832;4.758;2023-06-05T06:39:36;1.70;;;1.05;;
11490;SDS011;5802;52.832;4.758;2023-06-05T06:42:03;1.50;;;1.20;;
11490;SDS011;5802;52.832;4.758;2023-06-05T06:44:30;6.57;;;1.38;;
11490;SDS011;5802;52.832;4.758;2023-06-05T06:46:56;1.75;;;1.30;;
11490;SDS011;5802;52.832;4.758;2023-06-05T06:49:25;4.15;;;1.50;;
11490;SDS011;5802;52.832;4.758;2023-06-05T06:51:52;8.10;;;1.40;;
11490;SDS011;5802;52.832;4.758;2023-06-05T06:54:19;1.85;;;1.30;;
11490;SDS011;5802;52.832;4.758;2023-06-05T06:56:47;1.35;;;1.25;;
11490;SDS011;5802;52.832;4.758;2023-06-05T06:59:14;2.00;;;1.10;;
11490;SDS011;5802;52.832;4.758;2023-06-05T07:01:42;2.65;;;1.23;;
11490;SDS011;5802;52.832;4.758;2023-06-05T07:04:10;2.70;;;1.30;;
11490;SDS011;5802;52.832;4.758;2023-06-05T07:06:38;1.67;;;1.38;;
11490;SDS011;5802;52.832;4.758;2023-06-05T07:09:05;1.60;;;1.23;;
11490;SDS011;5802;52.832;4.758;2023-06-05T07:11:33;1.83;;;1.58;;
11490;SDS011;5802;52.832;4.758;2023-06-05T07:14:00;4.35;;;1.90;;
11490;SDS011;5802;52.832;4.758;2023-06-05T07:16:26;3.58;;;1.65;;
11490;SDS011;5802;52.832;4.758;2023-06-05T07:18:53;3.60;;;1.63;;
11490;SDS011;5802;52.832;4.758;2023-06-05T07:21:20;3.88;;;1.65;;
11490;SDS011;5802;52.832;4.758;2023-06-05T07:23:48;2.50;;;1.83;;
11490;SDS011;5802;52.832;4.758;2023-06-05T07:26:16;2.75;;;1.95;;
11490;SDS011;5802;52.832;4.758;2023-06-05T07:28:43;4.22;;;1.80;;
11490;SDS011;5802;52.832;4.758;2023-06-05T07:31:11;2.17;;;1.70;;
11490;SDS011;5802;52.832;4.758;2023-06-05T07:33:39;3.55;;;1.60;;
11490;SDS011;5802;52.832;4.758;2023-06-05T07:36:06;2.13;;;1.50;;
11490;SDS011;5802;52.832;4.758;2023-06-05T07:38:35;3.78;;;1.75;;
11490;SDS011;5802;52.832;4.758;2023-06-05T07:41:04;2.30;;;1.80;;
11490;SDS011;5802;52.832;4.758;2023-06-05T07:43:31;4.43;;;1.77;;
11490;SDS011;5802;52.832;4.758;2023-06-05T07:45:58;2.08;;;1.52;;
11490;SDS011;5802;52.832;4.758;2023-06-05T07:48:25;1.95;;;1.50;;
11490;SDS011;5802;52.832;4.758;2023-06-05T07:50:52;1.70;;;1.40;;
11490;SDS011;5802;52.832;4.758;2023-06-05T07:53:18;2.22;;;1.70;;
11490;SDS011;5802;52.832;4.758;2023-06-05T07:55:47;2.22;;;1.50;;
11490;SDS011;5802;52.832;4.758;2023-06-05T07:58:15;2.05;;;1.50;;
11490;SDS011;5802;52.832;4.758;2023-06-05T08:00:42;2.78;;;1.42;;
11490;SDS011;5802;52.832;4.758;2023-06-05T08:03:13;3.70;;;1.80;;
11490;SDS011;5802;52.832;4.758;2023-06-05T08:05:44;3.10;;;1.77;;
11490;SDS011;5802;52.832;4.758;2023-06-05T08:08:11;2.08;;;1.48;;
11490;SDS011;5802;52.832;4.758;2023-06-05T08:10:38;2.33;;;1.63;;
11490;SDS011;5802;52.832;4.758;2023-06-05T08:13:05;2.92;;;1.63;;
11490;SDS011;5802;52.832;4.758;2023-06-05T08:15:33;2.13;;;1.58;;
11490;SDS011;5802;52.832;4.758;2023-06-05T08:18:00;3.17;;;1.48;;
11490;SDS011;5802;52.832;4.758;2023-06-05T08:20:26;1.50;;;1.38;;
11490;SDS011;5802;52.832;4.758;2023-06-05T08:22:54;2.28;;;1.52;;
11490;SDS011;5802;52.832;4.758;2023-06-05T08:25:22;1.80;;;1.50;;
11490;SDS011;5802;52.832;4.758;2023-06-05T08:27:49;2.03;;;1.58;;
11490;SDS011;5802;52.832;4.758;2023-06-05T08:30:16;2.08;;;1.50;;
11490;SDS011;5802;52.832;4.758;2023-06-05T08:32:44;2.38;;;1.50;;
11490;SDS011;5802;52.832;4.758;2023-06-05T08:35:10;1.95;;;1.40;;
11490;SDS011;5802;52.832;4.758;2023-06-05T08:37:38;2.13;;;1.50;;
11490;SDS011;5802;52.832;4.758;2023-06-05T08:40:05;1.67;;;1.48;;
11490;SDS011;5802;52.832;4.758;2023-06-05T08:42:34;1.92;;;1.38;;
11490;SDS011;5802;52.832;4.758;2023-06-05T08:45:02;1.80;;;1.20;;
11490;SDS011;5802;52.832;4.758;2023-06-05T08:47:30;1.70;;;1.40;;
11490;SDS011;5802;52.832;4.758;2023-06-05T08:49:58;2.20;;;1.77;;
11490;SDS011;5802;52.832;4.758;2023-06-05T08:52:29;2.42;;;1.45;;
11490;SDS011;5802;52.832;4.758;2023-06-05T08:55:00;1.83;;;1.42;;
11490;SDS011;5802;52.832;4.758;2023-06-05T08:57:29;2.20;;;1.75;;
11490;SDS011;5802;52.832;4.758;2023-06-05T08:59:56;2.42;;;1.60;;
11490;SDS011;5802;52.832;4.758;2023-06-05T09:02:24;2.60;;;1.60;;
11490;SDS011;5802;52.832;4.758;2023-06-05T09:04:50;3.63;;;1.55;;
11490;SDS011;5802;52.832;4.758;2023-06-05T09:07:19;2.38;;;1.60;;
11490;SDS011;5802;52.832;4.758;2023-06-05T09:09:45;2.10;;;1.40;;
11490;SDS011;5802;52.832;4.758;2023-06-05T09:12:12;7.95;;;1.90;;
11490;SDS011;5802;52.832;4.758;2023-06-05T09:14:39;4.50;;;1.80;;
11490;SDS011;5802;52.832;4.758;2023-06-05T09:17:11;9.60;;;2.08;;
11490;SDS011;5802;52.832;4.758;2023-06-05T09:19:39;5.63;;;1.80;;
11490;SDS011;5802;52.832;4.758;2023-06-05T09:22:08;7.00;;;1.77;;
11490;SDS011;5802;52.832;4.758;2023-06-05T09:24:37;5.18;;;1.63;;
11490;SDS011;5802;52.832;4.758;2023-06-05T09:27:07;2.92;;;1.90;;
11490;SDS011;5802;52.832;4.758;2023-06-05T09:29:35;5.88;;;2.13;;
11490;SDS011;5802;52.832;4.758;2023-06-05T09:32:03;5.45;;;1.80;;
11490;SDS011;5802;52.832;4.758;2023-06-05T09:34:32;3.40;;;1.65;;
11490;SDS011;5802;52.832;4.758;2023-06-05T09:37:00;3.33;;;1.77;;
11490;SDS011;5802;52.832;4.758;2023-06-05T09:39:28;5.20;;;2.00;;
11490;SDS011;5802;52.832;4.758;2023-06-05T09:41:57;9.27;;;1.63;;
11490;SDS011;5802;52.832;4.758;2023-06-05T09:44:26;9.32;;;2.17;;
11490;SDS011;5802;52.832;4.758;2023-06-05T09:46:55;10.55;;;2.35;;
11490;SDS011;5802;52.832;4.758;2023-06-05T09:49:26;12.70;;;1.92;;
11490;SDS011;5802;52.832;4.758;2023-06-05T09:51:55;6.28;;;1.98;;
11490;SDS011;5802;52.832;4.758;2023-06-05T09:54:22;8.38;;;2.22;;
11490;SDS011;5802;52.832;4.758;2023-06-05T09:56:52;4.65;;;2.08;;
11490;SDS011;5802;52.832;4.758;2023-06-05T09:59:25;4.28;;;1.67;;
11490;SDS011;5802;52.832;4.758;2023-06-05T10:01:55;5.30;;;1.75;;
11490;SDS011;5802;52.832;4.758;2023-06-05T10:04:22;5.55;;;1.80;;
11490;SDS011;5802;52.832;4.758;2023-06-05T10:06:52;5.00;;;2.00;;
11490;SDS011;5802;52.832;4.758;2023-06-05T10:09:21;4.40;;;1.63;;
11490;SDS011;5802;52.832;4.758;2023-06-05T10:11:49;3.17;;;1.88;;
11490;SDS011;5802;52.832;4.758;2023-06-05T10:14:18;14.15;;;1.98;;
11490;SDS011;5802;52.832;4.758;2023-06-05T10:16:48;4.97;;;1.70;;
11490;SDS011;5802;52.832;4.758;2023-06-05T10:19:17;5.05;;;1.70;;
11490;SDS011;5802;52.832;4.758;2023-06-05T10:21:46;4.97;;;1.90;;
11490;SDS011;5802;52.832;4.758;2023-06-05T10:24:14;6.93;;;1.88;;
11490;SDS011;5802;52.832;4.758;2023-06-05T10:30:11;3.30;;;1.70;;
11490;SDS011;5802;52.832;4.758;2023-06-05T10:35:47;3.38;;;1.60;;
11490;SDS011;5802;52.832;4.758;2023-06-05T10:38:19;5.40;;;1.80;;
11490;SDS011;5802;52.832;4.758;2023-06-05T10:40:48;4.57;;;1.80;;
11490;SDS011;5802;52.832;4.758;2023-06-05T10:43:28;5.72;;;1.80;;
11490;SDS011;5802;52.832;4.758;2023-06-05T10:45:58;2.97;;;1.80;;
11490;SDS011;5802;52.832;4.758;2023-06-05T10:51:32;8.43;;;1.88;;
11490;SDS011;5802;52.832;4.758;2023-06-05T10:54:02;8.00;;;1.90;;
11490;SDS011;5802;52.832;4.758;2023-06-05T10:59:20;2.65;;;1.70;;
11490;SDS011;5802;52.832;4.758;2023-06-05T11:05:07;4.53;;;1.80;;
11490;SDS011;5802;52.832;4.758;2023-06-05T11:07:35;6.18;;;1.98;;
11490;SDS011;5802;52.832;4.758;2023-06-05T11:10:03;2.08;;;1.30;;
11490;SDS011;5802;52.832;4.758;2023-06-05T11:15:38;2.80;;;1.60;;
11490;SDS011;5802;52.832;4.758;2023-06-05T11:20:57;5.68;;;1.67;;
11490;SDS011;5802;52.832;4.758;2023-06-05T11:23:25;3.60;;;1.80;;
11490;SDS011;5802;52.832;4.758;2023-06-05T11:25:54;3.25;;;1.55;;
11490;SDS011;5802;52.832;4.758;2023-06-05T11:28:38;3.08;;;1.58;;
11490;SDS011;5802;52.832;4.758;2023-06-05T11:31:06;3.00;;;1.88;;
11490;SDS011;5802;52.832;4.758;2023-06-05T11:33:33;6.28;;;1.70;;
11490;SDS011;5802;52.832;4.758;2023-06-05T11:36:03;1.95;;;1.48;;
11490;SDS011;5802;52.832;4.758;2023-06-05T11:38:31;1.95;;;1.63;;
11490;SDS011;5802;52.832;4.758;2023-06-05T11:40:57;2.95;;;1.70;;
11490;SDS011;5802;52.832;4.758;2023-06-05T11:43:24;3.45;;;2.00;;
11490;SDS011;5802;52.832;4.758;2023-06-05T11:45:51;2.33;;;1.67;;
11490;SDS011;5802;52.832;4.758;2023-06-05T11:48:20;4.30;;;1.98;;
11490;SDS011;5802;52.832;4.758;2023-06-05T11:50:54;3.13;;;1.80;;
11490;SDS011;5802;52.832;4.758;2023-06-05T11:53:23;2.92;;;2.08;;
11490;SDS011;5802;52.832;4.758;2023-06-05T11:55:50;5.35;;;2.30;;
11490;SDS011;5802;52.832;4.758;2023-06-05T11:58:32;2.53;;;2.00;;
11490;SDS011;5802;52.832;4.758;2023-06-05T12:01:05;4.60;;;2.10;;
11490;SDS011;5802;52.832;4.758;2023-06-05T12:03:34;2.75;;;2.17;;
11490;SDS011;5802;52.832;4.758;2023-06-05T12:06:02;3.88;;;2.25;;
11490;SDS011;5802;52.832;4.758;2023-06-05T12:08:31;3.17;;;2.13;;
11490;SDS011;5802;52.832;4.758;2023-06-05T12:11:00;2.42;;;2.00;;
11490;SDS011;5802;52.832;4.758;2023-06-05T12:13:46;4.03;;;2.33;;
11490;SDS011;5802;52.832;4.758;2023-06-05T12:16:14;4.40;;;2.40;;
11490;SDS011;5802;52.832;4.758;2023-06-05T12:18:41;2.35;;;2.15;;
11490;SDS011;5802;52.832;4.758;2023-06-05T12:21:18;3.47;;;2.08;;
11490;SDS011;5802;52.832;4.758;2023-06-05T12:23:47;2.78;;;2.22;;
11490;SDS011;5802;52.832;4.758;2023-06-05T12:26:15;3.85;;;2.08;;
11490;SDS011;5802;52.832;4.758;2023-06-05T12:28:42;2.17;;;1.92;;
11490;SDS011;5802;52.832;4.758;2023-06-05T12:31:10;6.10;;;2.30;;
11490;SDS011;5802;52.832;4.758;2023-06-05T12:33:46;2.78;;;2.30;;
11490;SDS011;5802;52.832;4.758;2023-06-05T12:36:13;2.53;;;2.22;;
11490;SDS011;5802;52.832;4.758;2023-06-05T12:38:41;3.42;;;2.42;;
11490;SDS011;5802;52.832;4.758;2023-06-05T12:41:10;5.57;;;2.45;;
11490;SDS011;5802;52.832;4.758;2023-06-05T12:43:37;2.65;;;2.03;;
11490;SDS011;5802;52.832;4.758;2023-06-05T12:46:04;3.45;;;2.10;;
11490;SDS011;5802;52.832;4.758;2023-06-05T12:48:32;3.00;;;2.00;;
11490;SDS011;5802;52.832;4.758;2023-06-05T12:51:00;3.47;;;2.15;;
11490;SDS011;5802;52.832;4.758;2023-06-05T12:53:27;7.13;;;2.53;;
11490;SDS011;5802;52.832;4.758;2023-06-05T12:55:54;2.70;;;2.00;;
11490;SDS011;5802;52.832;4.758;2023-06-05T12:58:22;5.90;;;2.10;;
11490;SDS011;5802;52.832;4.758;2023-06-05T13:00:49;3.45;;;2.20;;
11490;SDS011;5802;52.832;4.758;2023-06-05T13:03:17;2.58;;;2.00;;
11490;SDS011;5802;52.832;4.758;2023-06-05T13:05:44;2.83;;;2.10;;
11490;SDS011;5802;52.832;4.758;2023-06-05T13:08:10;3.38;;;2.10;;
11490;SDS011;5802;52.832;4.758;2023-06-05T13:10:37;3.25;;;2.20;;
11490;SDS011;5802;52.832;4.758;2023-06-05T13:13:04;2.92;;;2.03;;
11490;SDS011;5802;52.832;4.758;2023-06-05T13:15:32;2.72;;;2.30;;
11490;SDS011;5802;52.832;4.758;2023-06-05T13:17:58;3.20;;;2.05;;
11490;SDS011;5802;52.832;4.758;2023-06-05T13:20:25;2.33;;;2.13;;
11490;SDS011;5802;52.832;4.758;2023-06-05T13:22:52;3.28;;;2.33;;
11490;SDS011;5802;52.832;4.758;2023-06-05T13:25:19;2.83;;;2.10;;
11490;SDS011;5802;52.832;4.758;2023-06-05T13:27:46;3.42;;;2.30;;
11490;SDS011;5802;52.832;4.758;2023-06-05T13:30:12;4.75;;;2.50;;
11490;SDS011;5802;52.832;4.758;2023-06-05T13:32:41;2.50;;;2.22;;
11490;SDS011;5802;52.832;4.758;2023-06-05T13:35:09;3.15;;;2.20;;
11490;SDS011;5802;52.832;4.758;2023-06-05T13:37:36;3.45;;;2.33;;
11490;SDS011;5802;52.832;4.758;2023-06-05T13:40:04;2.97;;;2.40;;
11490;SDS011;5802;52.832;4.758;2023-06-05T13:42:35;7.15;;;2.33;;
11490;SDS011;5802;52.832;4.758;2023-06-05T13:45:02;8.27;;;2.40;;
11490;SDS011;5802;52.832;4.758;2023-06-05T13:47:29;3.75;;;2.70;;
11490;SDS011;5802;52.832;4.758;2023-06-05T13:49:57;6.72;;;2.45;;
11490;SDS011;5802;52.832;4.758;2023-06-05T13:52:24;12.57;;;2.40;;
11490;SDS011;5802;52.832;4.758;2023-06-05T13:54:51;8.25;;;2.95;;
11490;SDS011;5802;52.832;4.758;2023-06-05T13:57:18;18.10;;;3.85;;
11490;SDS011;5802;52.832;4.758;2023-06-05T13:59:44;9.27;;;3.40;;
11490;SDS011;5802;52.832;4.758;2023-06-05T14:02:11;4.72;;;3.05;;
11490;SDS011;5802;52.832;4.758;2023-06-05T14:04:38;6.88;;;2.85;;
11490;SDS011;5802;52.832;4.758;2023-06-05T14:07:06;10.93;;;3.40;;
11490;SDS011;5802;52.832;4.758;2023-06-05T14:09:32;5.72;;;3.40;;
11490;SDS011;5802;52.832;4.758;2023-06-05T14:12:00;7.30;;;3.00;;
11490;SDS011;5802;52.832;4.758;2023-06-05T14:14:28;6.38;;;5.28;;
11490;SDS011;5802;52.832;4.758;2023-06-05T14:16:55;7.38;;;5.50;;
11490;SDS011;5802;52.832;4.758;2023-06-05T14:19:22;7.70;;;4.53;;
11490;SDS011;5802;52.832;4.758;2023-06-05T14:21:49;4.55;;;3.45;;
11490;SDS011;5802;52.832;4.758;2023-06-05T14:24:17;4.95;;;3.70;;
11490;SDS011;5802;52.832;4.758;2023-06-05T14:26:44;3.63;;;2.90;;
11490;SDS011;5802;52.832;4.758;2023-06-05T14:29:11;5.03;;;2.92;;
11490;SDS011;5802;52.832;4.758;2023-06-05T14:31:37;5.60;;;2.70;;
11490;SDS011;5802;52.832;4.758;2023-06-05T14:34:05;4.75;;;2.90;;
11490;SDS011;5802;52.832;4.758;2023-06-05T14:36:31;3.97;;;2.60;;
11490;SDS011;5802;52.832;4.758;2023-06-05T14:38:58;3.47;;;2.50;;
11490;SDS011;5802;52.832;4.758;2023-06-05T14:41:27;2.95;;;2.53;;
11490;SDS011;5802;52.832;4.758;2023-06-05T14:43:54;4.18;;;2.55;;
11490;SDS011;5802;52.832;4.758;2023-06-05T14:46:21;4.32;;;2.47;;
11490;SDS011;5802;52.832;4.758;2023-06-05T14:48:47;5.30;;;2.20;;
11490;SDS011;5802;52.832;4.758;2023-06-05T14:51:14;4.50;;;2.50;;
11490;SDS011;5802;52.832;4.758;2023-06-05T14:53:41;4.95;;;2.58;;
11490;SDS011;5802;52.832;4.758;2023-06-05T14:56:08;4.07;;;2.50;;
11490;SDS011;5802;52.832;4.758;2023-06-05T14:58:37;5.05;;;2.70;;
11490;SDS011;5802;52.832;4.758;2023-06-05T15:01:03;4.50;;;2.53;;
11490;SDS011;5802;52.832;4.758;2023-06-05T15:03:30;3.00;;;2.33;;
11490;SDS011;5802;52.832;4.758;2023-06-05T15:05:56;4.97;;;2.70;;
11490;SDS011;5802;52.832;4.758;2023-06-05T15:08:23;3.85;;;2.30;;
11490;SDS011;5802;52.832;4.758;2023-06-05T15:10:50;4.75;;;2.50;;
11490;SDS011;5802;52.832;4.758;2023-06-05T15:13:17;4.95;;;2.10;;
11490;SDS011;5802;52.832;4.758;2023-06-05T15:15:46;5.82;;;2.58;;
11490;SDS011;5802;52.832;4.758;2023-06-05T15:18:13;4.53;;;2.65;;
11490;SDS011;5802;52.832;4.758;2023-06-05T15:20:40;2.63;;;2.15;;
11490;SDS011;5802;52.832;4.758;2023-06-05T15:23:06;5.93;;;2.40;;
11490;SDS011;5802;52.832;4.758;2023-06-05T15:25:33;6.13;;;2.10;;
11490;SDS011;5802;52.832;4.758;2023-06-05T15:28:00;8.90;;;2.42;;